sensor_id;sensor_type;location;lat;lon;timestamp;temperature;humidity
5743;DHT22;2896;53.500;10.020;2023-06-19T00:00:17;19.90;99.90
5743;DHT22;2896;53.500;10.020;2023-06-19T00:02:43;19.90;99.90
5743;DHT22;2896;53.500;10.020;2023-06-19T00:05:12;19.90;99.90
5743;DHT22;2896;53.500;10.020;2023-06-19T00:07:39;19.90;99.90
5743;DHT22;2896;53.500;10.020;2023-06-19T00:10:06;19.90;99.90
5743;DHT22;2896;53.500;10.020;2023-06-19T00:12:33;19.90;99.90
5743;DHT22;2896;53.500;10.020;2023-06-19T00:15:01;19.90;99.90
5743;DHT22;2896;53.500;10.020;2023-06-19T00:17:28;19.80;99.90
5743;DHT22;2896;53.500;10.020;2023-06-19T00:19:55;19.80;99.90
5743;DHT22;2896;53.500;10.020;2023-06-19T00:22:21;19.80;99.90
5743;DHT22;2896;53.500;10.020;2023-06-19T00:24:48;19.80;99.90
5743;DHT22;2896;53.500;10.020;2023-06-19T00:27:14;19.80;99.90
5743;DHT22;2896;53.500;10.020;2023-06-19T00:29:41;19.80;99.90
5743;DHT22;2896;53.500;10.020;2023-06-19T00:32:09;19.70;99.90
5743;DHT22;2896;53.500;10.020;2023-06-19T00:34:36;19.70;99.90
5743;DHT22;2896;53.500;10.020;2023-06-19T00:37:04;19.70;99.90
5743;DHT22;2896;53.500;10.020;2023-06-19T00:39:30;19.70;99.90
5743;DHT22;2896;53.500;10.020;2023-06-19T00:41:58;19.70;99.90
5743;DHT22;2896;53.500;10.020;2023-06-19T00:44:25;19.70;99.90
5743;DHT22;2896;53.500;10.020;2023-06-19T00:46:56;19.80;99.90
5743;DHT22;2896;53.500;10.020;2023-06-19T00:49:25;19.80;99.90
5743;DHT22;2896;53.500;10.020;2023-06-19T00:51:52;19.80;99.90
5743;DHT22;2896;53.500;10.020;2023-06-19T00:54:19;19.80;99.90
5743;DHT22;2896;53.500;10.020;2023-06-19T00:56:45;19.80;99.90
5743;DHT22;2896;53.500;10.020;2023-06-19T00:59:15;19.80;99.90
5743;DHT22;2896;53.500;10.020;2023-06-19T01:01:43;19.80;99.90
5743;DHT22;2896;53.500;10.020;2023-06-19T01:04:10;19.80;99.90
5743;DHT22;2896;53.500;10.020;2023-06-19T01:06:42;19.80;99.90
5743;DHT22;2896;53.500;10.020;2023-06-19T01:09:11;19.70;99.90
5743;DHT22;2896;53.500;10.020;2023-06-19T01:11:44;19.70;99.90
5743;DHT22;2896;53.500;10.020;2023-06-19T01:14:15;19.70;99.90
5743;DHT22;2896;53.500;10.020;2023-06-19T01:16:44;19.70;99.90
5743;DHT22;2896;53.500;10.020;2023-06-19T01:19:18;19.70;99.90
5743;DHT22;2896;53.500;10.020;2023-06-19T01:21:46;19.70;99.90
5743;DHT22;2896;53.500;10.020;2023-06-19T01:24:15;19.70;99.90
5743;DHT22;2896;53.500;10.020;2023-06-19T01:26:42;19.70;99.90
5743;DHT22;2896;53.500;10.020;2023-06-19T01:29:11;19.70;99.90
5743;DHT22;2896;53.500;10.020;2023-06-19T01:31:42;19.70;99.90
5743;DHT22;2896;53.500;10.020;2023-06-19T01:34:12;19.70;99.90
5743;DHT22;2896;53.500;10.020;2023-06-19T01:36:41;19.70;99.90
5743;DHT22;2896;53.500;10.020;2023-06-19T01:39:08;19.70;99.90
5743;DHT22;2896;53.500;10.020;2023-06-19T01:41:37;19.60;99.90
5743;DHT22;2896;53.500;10.020;2023-06-19T01:44:05;19.60;99.90
5743;DHT22;2896;53.500;10.020;2023-06-19T01:46:32;19.70;99.90
5743;DHT22;2896;53.500;10.020;2023-06-19T01:48:58;19.60;99.90
5743;DHT22;2896;53.500;10.020;2023-06-19T01:51:25;21.00;99.90
5743;DHT22;2896;53.500;10.020;2023-06-19T01:53:52;19.70;99.90
5743;DHT22;2896;53.500;10.020;2023-06-19T01:56:18;19.60;99.90
5743;DHT22;2896;53.500;10.020;2023-06-19T01:58:46;19.70;99.90
5743;DHT22;2896;53.500;10.020;2023-06-19T02:01:13;19.70;99.90
5743;DHT22;2896;53.500;10.020;2023-06-19T02:03:40;19.70;99.90
5743;DHT22;2896;53.500;10.020;2023-06-19T02:06:06;19.70;99.90
5743;DHT22;2896;53.500;10.020;2023-06-19T02:08:33;19.70;99.90
5743;DHT22;2896;53.500;10.020;2023-06-19T02:11:00;19.70;99.90
5743;DHT22;2896;53.500;10.020;2023-06-19T02:13:26;19.70;99.90
5743;DHT22;2896;53.500;10.020;2023-06-19T02:15:54;19.70;99.90
5743;DHT22;2896;53.500;10.020;2023-06-19T02:18:21;19.70;99.90
5743;DHT22;2896;53.500;10.020;2023-06-19T02:20:48;19.70;99.90
5743;DHT22;2896;53.500;10.020;2023-06-19T02:23:14;19.60;99.90
5743;DHT22;2896;53.500;10.020;2023-06-19T02:25:41;19.60;99.90
5743;DHT22;2896;53.500;10.020;2023-06-19T02:28:08;19.60;99.90
5743;DHT22;2896;53.500;10.020;2023-06-19T02:30:34;19.60;99.90
5743;DHT22;2896;53.500;10.020;2023-06-19T02:33:02;19.50;99.90
5743;DHT22;2896;53.500;10.020;2023-06-19T02:35:30;19.50;99.90
5743;DHT22;2896;53.500;10.020;2023-06-19T02:37:56;19.50;99.90
5743;DHT22;2896;53.500;10.020;2023-06-19T02:40:23;19.50;99.90
5743;DHT22;2896;53.500;10.020;2023-06-19T02:42:50;19.50;99.90
5743;DHT22;2896;53.500;10.020;2023-06-19T02:45:17;19.50;99.90
5743;DHT22;2896;53.500;10.020;2023-06-19T02:47:43;19.50;99.90
5743;DHT22;2896;53.500;10.020;2023-06-19T02:50:11;19.50;99.90
5743;DHT22;2896;53.500;10.020;2023-06-19T02:52:38;19.50;99.90
5743;DHT22;2896;53.500;10.020;2023-06-19T02:55:05;19.50;99.90
5743;DHT22;2896;53.500;10.020;2023-06-19T02:57:33;19.50;99.90
5743;DHT22;2896;53.500;10.020;2023-06-19T03:00:00;19.50;99.90
5743;DHT22;2896;53.500;10.020;2023-06-19T03:02:26;19.40;99.90
5743;DHT22;2896;53.500;10.020;2023-06-19T03:04:53;19.50;99.90
5743;DHT22;2896;53.500;10.020;2023-06-19T03:07:21;19.50;99.90
5743;DHT22;2896;53.500;10.020;2023-06-19T03:09:48;19.50;99.90
5743;DHT22;2896;53.500;10.020;2023-06-19T03:12:14;19.60;99.90
5743;DHT22;2896;53.500;10.020;2023-06-19T03:14:41;19.70;99.90
5743;DHT22;2896;53.500;10.020;2023-06-19T03:17:07;19.60;99.90
5743;DHT22;2896;53.500;10.020;2023-06-19T03:19:34;19.70;99.90
5743;DHT22;2896;53.500;10.020;2023-06-19T03:22:01;19.80;99.90
5743;DHT22;2896;53.500;10.020;2023-06-19T03:24:30;19.70;99.90
5743;DHT22;2896;53.500;10.020;2023-06-19T03:26:56;19.70;99.90
5743;DHT22;2896;53.500;10.020;2023-06-19T03:29:23;19.70;99.90
5743;DHT22;2896;53.500;10.020;2023-06-19T03:31:49;19.70;99.90
5743;DHT22;2896;53.500;10.020;2023-06-19T03:34:16;19.70;99.90
5743;DHT22;2896;53.500;10.020;2023-06-19T03:36:43;19.80;99.90
5743;DHT22;2896;53.500;10.020;2023-06-19T03:39:09;19.90;99.90
5743;DHT22;2896;53.500;10.020;2023-06-19T03:41:37;19.90;99.90
5743;DHT22;2896;53.500;10.020;2023-06-19T03:44:04;19.80;99.90
5743;DHT22;2896;53.500;10.020;2023-06-19T03:46:31;19.70;99.90
5743;DHT22;2896;53.500;10.020;2023-06-19T03:48:57;19.80;99.90
5743;DHT22;2896;53.500;10.020;2023-06-19T03:51:24;19.80;99.90
5743;DHT22;2896;53.500;10.020;2023-06-19T03:53:51;19.80;99.90
5743;DHT22;2896;53.500;10.020;2023-06-19T03:56:17;19.80;99.90
5743;DHT22;2896;53.500;10.020;2023-06-19T03:58:46;19.70;99.90
5743;DHT22;2896;53.500;10.020;2023-06-19T04:01:12;19.70;99.90
5743;DHT22;2896;53.500;10.020;2023-06-19T04:03:39;19.70;99.90
5743;DHT22;2896;53.500;10.020;2023-06-19T04:06:05;19.70;99.90
5743;DHT22;2896;53.500;10.020;2023-06-19T04:08:33;19.70;99.90
5743;DHT22;2896;53.500;10.020;2023-06-19T04:11:00;19.60;99.90
5743;DHT22;2896;53.500;10.020;2023-06-19T04:13:26;19.40;99.90
5743;DHT22;2896;53.500;10.020;2023-06-19T04:15:54;19.50;99.90
5743;DHT22;2896;53.500;10.020;2023-06-19T04:18:21;19.50;99.90
5743;DHT22;2896;53.500;10.020;2023-06-19T04:20:48;19.50;99.90
5743;DHT22;2896;53.500;10.020;2023-06-19T04:23:14;19.60;99.90
5743;DHT22;2896;53.500;10.020;2023-06-19T04:25:41;19.60;99.90
5743;DHT22;2896;53.500;10.020;2023-06-19T04:28:07;19.60;99.90
5743;DHT22;2896;53.500;10.020;2023-06-19T04:30:34;19.60;99.90
5743;DHT22;2896;53.500;10.020;2023-06-19T04:33:02;19.60;99.90
5743;DHT22;2896;53.500;10.020;2023-06-19T04:35:29;19.70;99.90
5743;DHT22;2896;53.500;10.020;2023-06-19T04:37:56;19.70;99.90
5743;DHT22;2896;53.500;10.020;2023-06-19T04:40:26;19.70;99.90
5743;DHT22;2896;53.500;10.020;2023-06-19T04:42:53;19.70;99.90
5743;DHT22;2896;53.500;10.020;2023-06-19T04:45:20;19.70;99.90
5743;DHT22;2896;53.500;10.020;2023-06-19T04:47:46;19.80;99.90
5743;DHT22;2896;53.500;10.020;2023-06-19T04:50:14;19.80;99.90
5743;DHT22;2896;53.500;10.020;2023-06-19T04:52:41;19.80;99.90
5743;DHT22;2896;53.500;10.020;2023-06-19T04:55:09;19.80;99.90
5743;DHT22;2896;53.500;10.020;2023-06-19T04:57:36;19.90;99.90
5743;DHT22;2896;53.500;10.020;2023-06-19T05:00:04;19.90;99.90
5743;DHT22;2896;53.500;10.020;2023-06-19T05:02:32;19.80;99.90
5743;DHT22;2896;53.500;10.020;2023-06-19T05:04:58;19.70;99.90
5743;DHT22;2896;53.500;10.020;2023-06-19T05:07:29;19.80;99.90
5743;DHT22;2896;53.500;10.020;2023-06-19T05:09:56;19.70;99.90
5743;DHT22;2896;53.500;10.020;2023-06-19T05:12:23;19.70;99.90
5743;DHT22;2896;53.500;10.020;2023-06-19T05:14:50;19.60;99.90
5743;DHT22;2896;53.500;10.020;2023-06-19T05:17:16;19.70;99.90
5743;DHT22;2896;53.500;10.020;2023-06-19T05:19:43;19.80;99.90
5743;DHT22;2896;53.500;10.020;2023-06-19T05:22:10;19.80;99.90
5743;DHT22;2896;53.500;10.020;2023-06-19T05:24:37;19.70;99.90
5743;DHT22;2896;53.500;10.020;2023-06-19T05:27:05;19.70;99.90
5743;DHT22;2896;53.500;10.020;2023-06-19T05:29:31;19.70;99.90
5743;DHT22;2896;53.500;10.020;2023-06-19T05:31:58;19.60;99.90
5743;DHT22;2896;53.500;10.020;2023-06-19T05:34:25;19.50;99.90
5743;DHT22;2896;53.500;10.020;2023-06-19T05:36:51;19.60;99.90
5743;DHT22;2896;53.500;10.020;2023-06-19T05:39:18;19.50;99.90
5743;DHT22;2896;53.500;10.020;2023-06-19T05:41:46;19.60;99.90
5743;DHT22;2896;53.500;10.020;2023-06-19T05:44:13;19.60;99.90
5743;DHT22;2896;53.500;10.020;2023-06-19T05:46:41;19.60;99.90
5743;DHT22;2896;53.500;10.020;2023-06-19T05:49:08;19.70;99.90
5743;DHT22;2896;53.500;10.020;2023-06-19T05:51:34;19.70;99.90
5743;DHT22;2896;53.500;10.020;2023-06-19T05:54:01;19.70;99.90
5743;DHT22;2896;53.500;10.020;2023-06-19T05:56:29;19.80;99.90
5743;DHT22;2896;53.500;10.020;2023-06-19T05:58:57;19.80;99.90
5743;DHT22;2896;53.500;10.020;2023-06-19T06:01:24;19.80;99.90
5743;DHT22;2896;53.500;10.020;2023-06-19T06:03:53;19.80;99.90
5743;DHT22;2896;53.500;10.020;2023-06-19T06:06:19;19.90;99.90
5743;DHT22;2896;53.500;10.020;2023-06-19T06:08:46;19.80;99.90
5743;DHT22;2896;53.500;10.020;2023-06-19T06:11:13;19.90;99.90
5743;DHT22;2896;53.500;10.020;2023-06-19T06:13:39;19.90;99.90
5743;DHT22;2896;53.500;10.020;2023-06-19T06:16:07;19.90;99.90
5743;DHT22;2896;53.500;10.020;2023-06-19T06:18:34;20.00;99.90
5743;DHT22;2896;53.500;10.020;2023-06-19T06:21:01;20.10;99.90
5743;DHT22;2896;53.500;10.020;2023-06-19T06:23:27;20.20;99.90
5743;DHT22;2896;53.500;10.020;2023-06-19T06:25:54;20.20;99.90
5743;DHT22;2896;53.500;10.020;2023-06-19T06:28:26;20.30;99.90
5743;DHT22;2896;53.500;10.020;2023-06-19T06:30:53;20.30;99.90
5743;DHT22;2896;53.500;10.020;2023-06-19T06:33:21;20.40;99.90
5743;DHT22;2896;53.500;10.020;2023-06-19T06:35:48;20.50;99.90
5743;DHT22;2896;53.500;10.020;2023-06-19T06:38:15;20.50;99.90
5743;DHT22;2896;53.500;10.020;2023-06-19T06:40:41;20.60;99.90
5743;DHT22;2896;53.500;10.020;2023-06-19T06:43:08;20.80;99.90
5743;DHT22;2896;53.500;10.020;2023-06-19T06:45:35;20.60;99.90
5743;DHT22;2896;53.500;10.020;2023-06-19T06:48:03;20.50;99.90
5743;DHT22;2896;53.500;10.020;2023-06-19T06:50:31;20.40;99.90
5743;DHT22;2896;53.500;10.020;2023-06-19T06:52:58;20.50;99.90
5743;DHT22;2896;53.500;10.020;2023-06-19T06:55:25;20.50;99.90
5743;DHT22;2896;53.500;10.020;2023-06-19T06:57:51;20.50;99.90
5743;DHT22;2896;53.500;10.020;2023-06-19T07:00:18;20.50;99.90
5743;DHT22;2896;53.500;10.020;2023-06-19T07:02:45;20.50;99.90
5743;DHT22;2896;53.500;10.020;2023-06-19T07:05:13;20.70;99.90
5743;DHT22;2896;53.500;10.020;2023-06-19T07:07:41;20.80;99.90
5743;DHT22;2896;53.500;10.020;2023-06-19T07:10:08;20.80;99.90
5743;DHT22;2896;53.500;10.020;2023-06-19T07:12:35;20.80;99.90
5743;DHT22;2896;53.500;10.020;2023-06-19T07:15:02;20.60;99.90
5743;DHT22;2896;53.500;10.020;2023-06-19T07:17:29;20.70;99.90
5743;DHT22;2896;53.500;10.020;2023-06-19T07:19:56;20.80;99.90
5743;DHT22;2896;53.500;10.020;2023-06-19T07:22:22;20.80;99.90
5743;DHT22;2896;53.500;10.020;2023-06-19T07:24:50;20.80;99.90
5743;DHT22;2896;53.500;10.020;2023-06-19T07:27:17;20.90;99.90
5743;DHT22;2896;53.500;10.020;2023-06-19T07:29:44;21.00;99.90
5743;DHT22;2896;53.500;10.020;2023-06-19T07:32:11;21.10;99.90
5743;DHT22;2896;53.500;10.020;2023-06-19T07:34:37;21.30;99.90
5743;DHT22;2896;53.500;10.020;2023-06-19T07:37:04;21.30;99.90
5743;DHT22;2896;53.500;10.020;2023-06-19T07:39:31;21.30;99.90
5743;DHT22;2896;53.500;10.020;2023-06-19T07:41:59;21.30;99.90
5743;DHT22;2896;53.500;10.020;2023-06-19T07:44:25;21.50;99.90
5743;DHT22;2896;53.500;10.020;2023-06-19T07:46:52;21.50;99.90
5743;DHT22;2896;53.500;10.020;2023-06-19T07:49:19;21.80;99.90
5743;DHT22;2896;53.500;10.020;2023-06-19T07:51:45;22.00;99.90
5743;DHT22;2896;53.500;10.020;2023-06-19T07:54:12;22.00;99.90
5743;DHT22;2896;53.500;10.020;2023-06-19T07:56:38;22.00;99.90
5743;DHT22;2896;53.500;10.020;2023-06-19T07:59:08;22.10;99.90
5743;DHT22;2896;53.500;10.020;2023-06-19T08:01:34;22.30;99.90
5743;DHT22;2896;53.500;10.020;2023-06-19T08:04:01;22.80;99.90
5743;DHT22;2896;53.500;10.020;2023-06-19T08:06:28;23.10;99.90
5743;DHT22;2896;53.500;10.020;2023-06-19T08:08:54;23.50;99.90
5743;DHT22;2896;53.500;10.020;2023-06-19T08:11:21;24.00;99.90
5743;DHT22;2896;53.500;10.020;2023-06-19T08:13:48;24.00;99.90
5743;DHT22;2896;53.500;10.020;2023-06-19T08:16:16;24.20;99.90
5743;DHT22;2896;53.500;10.020;2023-06-19T08:18:43;24.30;99.90
5743;DHT22;2896;53.500;10.020;2023-06-19T08:21:10;24.20;99.90
5743;DHT22;2896;53.500;10.020;2023-06-19T08:23:37;24.20;99.90
5743;DHT22;2896;53.500;10.020;2023-06-19T08:26:05;24.10;99.90
5743;DHT22;2896;53.500;10.020;2023-06-19T08:28:33;24.10;99.90
5743;DHT22;2896;53.500;10.020;2023-06-19T08:31:00;24.40;99.90
5743;DHT22;2896;53.500;10.020;2023-06-19T08:33:28;24.60;99.90
5743;DHT22;2896;53.500;10.020;2023-06-19T08:35:55;24.70;99.90
5743;DHT22;2896;53.500;10.020;2023-06-19T08:38:21;24.80;99.90
5743;DHT22;2896;53.500;10.020;2023-06-19T08:40:48;25.10;99.90
5743;DHT22;2896;53.500;10.020;2023-06-19T08:43:15;24.90;99.90
5743;DHT22;2896;53.500;10.020;2023-06-19T08:45:42;25.20;99.90
5743;DHT22;2896;53.500;10.020;2023-06-19T08:48:13;25.80;99.90
5743;DHT22;2896;53.500;10.020;2023-06-19T08:50:41;26.20;99.90
5743;DHT22;2896;53.500;10.020;2023-06-19T08:53:08;26.30;99.90
5743;DHT22;2896;53.500;10.020;2023-06-19T08:55:34;26.20;99.90
5743;DHT22;2896;53.500;10.020;2023-06-19T08:58:01;26.40;99.90
5743;DHT22;2896;53.500;10.020;2023-06-19T09:00:29;26.70;99.90
5743;DHT22;2896;53.500;10.020;2023-06-19T09:03:00;27.00;99.90
5743;DHT22;2896;53.500;10.020;2023-06-19T09:05:27;26.90;99.90
5743;DHT22;2896;53.500;10.020;2023-06-19T09:07:57;26.80;99.90
5743;DHT22;2896;53.500;10.020;2023-06-19T09:10:26;26.70;99.90
5743;DHT22;2896;53.500;10.020;2023-06-19T09:13:00;26.90;99.90
5743;DHT22;2896;53.500;10.020;2023-06-19T09:15:29;27.40;99.90
5743;DHT22;2896;53.500;10.020;2023-06-19T09:18:01;27.20;99.90
5743;DHT22;2896;53.500;10.020;2023-06-19T09:20:28;26.90;99.90
5743;DHT22;2896;53.500;10.020;2023-06-19T09:22:57;27.20;99.90
5743;DHT22;2896;53.500;10.020;2023-06-19T09:25:24;27.70;99.90
5743;DHT22;2896;53.500;10.020;2023-06-19T09:27:52;27.90;99.90
5743;DHT22;2896;53.500;10.020;2023-06-19T09:30:19;28.00;99.90
5743;DHT22;2896;53.500;10.020;2023-06-19T09:32:45;28.20;99.90
5743;DHT22;2896;53.500;10.020;2023-06-19T09:35:12;28.20;99.90
5743;DHT22;2896;53.500;10.020;2023-06-19T09:37:39;28.20;99.90
5743;DHT22;2896;53.500;10.020;2023-06-19T09:40:09;28.30;99.90
5743;DHT22;2896;53.500;10.020;2023-06-19T09:42:38;28.40;99.90
5743;DHT22;2896;53.500;10.020;2023-06-19T09:45:06;28.50;99.90
5743;DHT22;2896;53.500;10.020;2023-06-19T09:47:36;28.30;99.90
5743;DHT22;2896;53.500;10.020;2023-06-19T09:50:04;28.20;99.90
5743;DHT22;2896;53.500;10.020;2023-06-19T09:52:31;28.20;99.90
5743;DHT22;2896;53.500;10.020;2023-06-19T09:55:02;28.40;99.90
5743;DHT22;2896;53.500;10.020;2023-06-19T09:57:31;28.90;99.90
5743;DHT22;2896;53.500;10.020;2023-06-19T09:59:59;28.80;99.90
5743;DHT22;2896;53.500;10.020;2023-06-19T10:02:35;28.80;99.90
5743;DHT22;2896;53.500;10.020;2023-06-19T10:05:02;28.50;99.90
5743;DHT22;2896;53.500;10.020;2023-06-19T10:07:33;28.50;99.90
5743;DHT22;2896;53.500;10.020;2023-06-19T10:10:03;28.50;99.90
5743;DHT22;2896;53.500;10.020;2023-06-19T10:12:37;28.50;99.90
5743;DHT22;2896;53.500;10.020;2023-06-19T10:15:16;28.80;99.90
5743;DHT22;2896;53.500;10.020;2023-06-19T10:17:45;28.80;99.90
5743;DHT22;2896;53.500;10.020;2023-06-19T10:20:23;29.00;99.90
5743;DHT22;2896;53.500;10.020;2023-06-19T10:22:56;29.40;99.90
5743;DHT22;2896;53.500;10.020;2023-06-19T10:25:24;29.00;99.90
5743;DHT22;2896;53.500;10.020;2023-06-19T10:27:52;29.30;99.90
5743;DHT22;2896;53.500;10.020;2023-06-19T10:30:20;30.10;99.90
5743;DHT22;2896;53.500;10.020;2023-06-19T10:32:47;30.80;99.90
5743;DHT22;2896;53.500;10.020;2023-06-19T10:35:16;31.40;99.90
5743;DHT22;2896;53.500;10.020;2023-06-19T10:37:43;30.90;99.90
5743;DHT22;2896;53.500;10.020;2023-06-19T10:40:11;31.10;99.90
5743;DHT22;2896;53.500;10.020;2023-06-19T10:42:38;31.20;99.90
5743;DHT22;2896;53.500;10.020;2023-06-19T10:45:10;31.50;99.90
5743;DHT22;2896;53.500;10.020;2023-06-19T10:47:39;32.00;99.90
5743;DHT22;2896;53.500;10.020;2023-06-19T10:50:10;32.30;99.90
5743;DHT22;2896;53.500;10.020;2023-06-19T10:52:39;32.50;99.90
5743;DHT22;2896;53.500;10.020;2023-06-19T10:55:07;32.50;99.90
5743;DHT22;2896;53.500;10.020;2023-06-19T10:57:34;32.70;99.90
5743;DHT22;2896;53.500;10.020;2023-06-19T11:00:01;32.70;99.90
5743;DHT22;2896;53.500;10.020;2023-06-19T11:02:33;32.50;99.90
5743;DHT22;2896;53.500;10.020;2023-06-19T11:04:59;32.70;99.90
5743;DHT22;2896;53.500;10.020;2023-06-19T11:07:26;32.60;99.90
5743;DHT22;2896;53.500;10.020;2023-06-19T11:09:53;32.90;99.90
5743;DHT22;2896;53.500;10.020;2023-06-19T11:12:20;32.90;99.90
5743;DHT22;2896;53.500;10.020;2023-06-19T11:14:47;33.20;99.90
5743;DHT22;2896;53.500;10.020;2023-06-19T11:17:14;33.50;99.90
5743;DHT22;2896;53.500;10.020;2023-06-19T11:19:42;33.70;99.90
5743;DHT22;2896;53.500;10.020;2023-06-19T11:22:10;33.90;99.90
5743;DHT22;2896;53.500;10.020;2023-06-19T11:24:42;33.60;99.90
5743;DHT22;2896;53.500;10.020;2023-06-19T11:27:16;33.80;99.90
5743;DHT22;2896;53.500;10.020;2023-06-19T11:29:43;34.30;99.90
5743;DHT22;2896;53.500;10.020;2023-06-19T11:32:14;34.10;99.90
5743;DHT22;2896;53.500;10.020;2023-06-19T11:34:42;34.20;99.90
5743;DHT22;2896;53.500;10.020;2023-06-19T11:37:13;33.80;99.90
5743;DHT22;2896;53.500;10.020;2023-06-19T11:39:40;34.30;99.90
5743;DHT22;2896;53.500;10.020;2023-06-19T11:42:07;34.40;99.90
5743;DHT22;2896;53.500;10.020;2023-06-19T11:44:34;33.80;99.90
5743;DHT22;2896;53.500;10.020;2023-06-19T11:47:01;33.10;99.90
5743;DHT22;2896;53.500;10.020;2023-06-19T11:49:34;33.50;99.90
5743;DHT22;2896;53.500;10.020;2023-06-19T11:52:03;33.30;99.90
5743;DHT22;2896;53.500;10.020;2023-06-19T11:54:30;33.20;99.90
5743;DHT22;2896;53.500;10.020;2023-06-19T11:56:56;33.10;99.90
5743;DHT22;2896;53.500;10.020;2023-06-19T11:59:23;32.70;99.90
5743;DHT22;2896;53.500;10.020;2023-06-19T12:01:50;32.90;99.90
5743;DHT22;2896;53.500;10.020;2023-06-19T12:04:16;33.30;99.90
5743;DHT22;2896;53.500;10.020;2023-06-19T12:06:43;34.10;99.90
5743;DHT22;2896;53.500;10.020;2023-06-19T12:09:11;34.40;99.90
5743;DHT22;2896;53.500;10.020;2023-06-19T12:11:37;34.10;99.90
5743;DHT22;2896;53.500;10.020;2023-06-19T12:14:04;33.60;99.90
5743;DHT22;2896;53.500;10.020;2023-06-19T12:16:31;32.90;99.90
5743;DHT22;2896;53.500;10.020;2023-06-19T12:18:57;32.70;99.90
5743;DHT22;2896;53.500;10.020;2023-06-19T12:21:24;32.60;99.90
5743;DHT22;2896;53.500;10.020;2023-06-19T12:23:51;32.40;99.90
5743;DHT22;2896;53.500;10.020;2023-06-19T12:26:19;32.30;99.90
5743;DHT22;2896;53.500;10.020;2023-06-19T12:28:46;32.30;99.90
5743;DHT22;2896;53.500;10.020;2023-06-19T12:31:12;32.40;99.90
5743;DHT22;2896;53.500;10.020;2023-06-19T12:33:39;32.40;99.90
5743;DHT22;2896;53.500;10.020;2023-06-19T12:36:10;32.30;99.90
5743;DHT22;2896;53.500;10.020;2023-06-19T12:38:38;32.40;99.90
5743;DHT22;2896;53.500;10.020;2023-06-19T12:41:05;33.10;99.90
5743;DHT22;2896;53.500;10.020;2023-06-19T12:43:33;33.20;99.90
5743;DHT22;2896;53.500;10.020;2023-06-19T12:46:00;33.40;99.90
5743;DHT22;2896;53.500;10.020;2023-06-19T12:48:26;33.40;99.90
5743;DHT22;2896;53.500;10.020;2023-06-19T12:50:53;32.80;99.90
5743;DHT22;2896;53.500;10.020;2023-06-19T12:53:20;33.30;99.90
5743;DHT22;2896;53.500;10.020;2023-06-19T12:55:51;32.80;99.90
5743;DHT22;2896;53.500;10.020;2023-06-19T12:58:18;32.40;99.90
5743;DHT22;2896;53.500;10.020;2023-06-19T13:00:46;33.00;99.90
5743;DHT22;2896;53.500;10.020;2023-06-19T13:03:13;32.30;99.90
5743;DHT22;2896;53.500;10.020;2023-06-19T13:05:39;32.20;99.90
5743;DHT22;2896;53.500;10.020;2023-06-19T13:08:06;32.00;99.90
5743;DHT22;2896;53.500;10.020;2023-06-19T13:10:32;32.40;99.90
5743;DHT22;2896;53.500;10.020;2023-06-19T13:13:00;32.30;99.90
5743;DHT22;2896;53.500;10.020;2023-06-19T13:15:26;32.70;99.90
5743;DHT22;2896;53.500;10.020;2023-06-19T13:17:54;34.80;99.90
5743;DHT22;2896;53.500;10.020;2023-06-19T13:20:21;33.10;99.90
5743;DHT22;2896;53.500;10.020;2023-06-19T13:22:48;33.50;99.90
5743;DHT22;2896;53.500;10.020;2023-06-19T13:25:14;33.40;99.90
5743;DHT22;2896;53.500;10.020;2023-06-19T13:27:41;33.00;99.90
5743;DHT22;2896;53.500;10.020;2023-06-19T13:30:08;33.50;99.90
5743;DHT22;2896;53.500;10.020;2023-06-19T13:32:35;32.90;99.90
5743;DHT22;2896;53.500;10.020;2023-06-19T13:35:05;32.80;99.90
5743;DHT22;2896;53.500;10.020;2023-06-19T13:37:33;33.40;99.90
5743;DHT22;2896;53.500;10.020;2023-06-19T13:40:00;33.70;99.90
5743;DHT22;2896;53.500;10.020;2023-06-19T13:42:28;34.10;99.90
5743;DHT22;2896;53.500;10.020;2023-06-19T13:44:55;34.50;99.90
5743;DHT22;2896;53.500;10.020;2023-06-19T13:47:22;34.70;99.90
5743;DHT22;2896;53.500;10.020;2023-06-19T13:49:50;34.60;99.90
5743;DHT22;2896;53.500;10.020;2023-06-19T13:52:18;34.30;99.90
5743;DHT22;2896;53.500;10.020;2023-06-19T13:54:45;34.50;99.90
5743;DHT22;2896;53.500;10.020;2023-06-19T13:57:12;34.20;99.90
5743;DHT22;2896;53.500;10.020;2023-06-19T13:59:38;33.80;99.90
5743;DHT22;2896;53.500;10.020;2023-06-19T14:02:05;34.00;99.90
5743;DHT22;2896;53.500;10.020;2023-06-19T14:04:32;34.40;99.90
5743;DHT22;2896;53.500;10.020;2023-06-19T14:06:58;33.80;99.90
5743;DHT22;2896;53.500;10.020;2023-06-19T14:09:27;33.60;99.90
5743;DHT22;2896;53.500;10.020;2023-06-19T14:11:53;33.70;99.90
5743;DHT22;2896;53.500;10.020;2023-06-19T14:14:20;33.80;99.90
5743;DHT22;2896;53.500;10.020;2023-06-19T14:16:47;33.00;99.90
5743;DHT22;2896;53.500;10.020;2023-06-19T14:19:13;32.50;99.90
5743;DHT22;2896;53.500;10.020;2023-06-19T14:21:40;32.60;99.90
5743;DHT22;2896;53.500;10.020;2023-06-19T14:24:07;32.60;99.90
5743;DHT22;2896;53.500;10.020;2023-06-19T14:26:35;32.50;99.90
5743;DHT22;2896;53.500;10.020;2023-06-19T14:29:01;32.10;99.90
5743;DHT22;2896;53.500;10.020;2023-06-19T14:31:28;31.80;99.90
5743;DHT22;2896;53.500;10.020;2023-06-19T14:33:55;32.10;99.90
5743;DHT22;2896;53.500;10.020;2023-06-19T14:36:21;32.40;99.90
5743;DHT22;2896;53.500;10.020;2023-06-19T14:38:48;33.00;99.90
5743;DHT22;2896;53.500;10.020;2023-06-19T14:41:14;32.90;99.90
5743;DHT22;2896;53.500;10.020;2023-06-19T14:43:42;32.20;99.90
5743;DHT22;2896;53.500;10.020;2023-06-19T14:46:09;32.20;99.90
5743;DHT22;2896;53.500;10.020;2023-06-19T14:48:36;32.30;99.90
5743;DHT22;2896;53.500;10.020;2023-06-19T14:51:02;32.80;99.90
5743;DHT22;2896;53.500;10.020;2023-06-19T14:53:31;32.50;99.90
5743;DHT22;2896;53.500;10.020;2023-06-19T14:55:57;32.10;99.90
5743;DHT22;2896;53.500;10.020;2023-06-19T14:58:24;32.00;99.90
5743;DHT22;2896;53.500;10.020;2023-06-19T15:00:55;31.60;99.90
5743;DHT22;2896;53.500;10.020;2023-06-19T15:03:23;31.50;99.90
5743;DHT22;2896;53.500;10.020;2023-06-19T15:05:49;31.50;99.90
5743;DHT22;2896;53.500;10.020;2023-06-19T15:08:16;31.50;99.90
5743;DHT22;2896;53.500;10.020;2023-06-19T15:10:47;31.30;99.90
5743;DHT22;2896;53.500;10.020;2023-06-19T15:13:13;31.60;99.90
5743;DHT22;2896;53.500;10.020;2023-06-19T15:15:41;31.80;99.90
5743;DHT22;2896;53.500;10.020;2023-06-19T15:18:09;32.00;99.90
5743;DHT22;2896;53.500;10.020;2023-06-19T15:20:35;31.90;99.90
5743;DHT22;2896;53.500;10.020;2023-06-19T15:23:03;32.20;99.90
5743;DHT22;2896;53.500;10.020;2023-06-19T15:25:30;32.60;99.90
5743;DHT22;2896;53.500;10.020;2023-06-19T15:27:57;32.10;99.90
5743;DHT22;2896;53.500;10.020;2023-06-19T15:30:23;31.80;99.90
5743;DHT22;2896;53.500;10.020;2023-06-19T15:32:50;31.90;99.90
5743;DHT22;2896;53.500;10.020;2023-06-19T15:35:18;31.70;99.90
5743;DHT22;2896;53.500;10.020;2023-06-19T15:37:45;31.40;99.90
5743;DHT22;2896;53.500;10.020;2023-06-19T15:40:12;31.10;99.90
5743;DHT22;2896;53.500;10.020;2023-06-19T15:42:39;30.80;99.90
5743;DHT22;2896;53.500;10.020;2023-06-19T15:45:06;30.50;99.90